createdAt,value
2022-08-11T00:04:17.902Z,21.43
2022-08-11T00:09:21.321Z,21.45
2022-08-11T00:14:36.032Z,21.48
2022-08-11T00:20:15.392Z,21.50
2022-08-11T00:25:11.183Z,21.48
2022-08-11T00:30:13.455Z,21.47
2022-08-11T00:35:54.532Z,21.45
2022-08-11T00:40:44.116Z,21.45
2022-08-11T00:46:05.689Z,21.45
2022-08-11T00:51:22.367Z,21.42
2022-08-11T00:56:42.569Z,21.34
2022-08-11T01:01:53.555Z,21.21
2022-08-11T01:07:13.714Z,21.02
2022-08-11T01:12:15.587Z,20.79
2022-08-11T01:17:32.266Z,20.68
2022-08-11T01:23:12.517Z,20.64
2022-08-11T01:28:32.118Z,20.62
2022-08-11T01:34:01.416Z,20.64
2022-08-11T01:39:21.480Z,20.66
2022-08-11T01:44:37.938Z,20.71
2022-08-11T01:50:08.550Z,20.74
2022-08-11T01:55:30.214Z,20.79
2022-08-11T02:00:36.181Z,20.80
2022-08-11T02:05:40.703Z,20.81
2022-08-11T02:11:08.556Z,20.81
2022-08-11T02:16:21.593Z,20.82
2022-08-11T02:21:59.779Z,20.84
2022-08-11T02:27:09.707Z,20.84
2022-08-11T02:32:32.653Z,20.84
2022-08-11T02:37:33.987Z,20.77
2022-08-11T02:42:41.957Z,20.72
2022-08-11T02:48:22.127Z,20.67
2022-08-11T02:53:31.970Z,20.61
2022-08-11T02:58:35.386Z,20.57
2022-08-11T03:03:44.052Z,20.54
2022-08-11T03:08:51.182Z,20.50
2022-08-11T03:14:16.995Z,20.49
2022-08-11T03:19:18.298Z,20.47
2022-08-11T03:24:28.289Z,20.47
2022-08-11T03:29:35.445Z,20.45
2022-08-11T03:34:38.969Z,20.42
2022-08-11T03:39:57.692Z,20.43
2022-08-11T03:45:04.722Z,20.42
2022-08-11T03:50:13.371Z,20.42
2022-08-11T03:55:24.209Z,20.44
2022-08-11T04:00:43.985Z,20.45
2022-08-11T04:05:45.515Z,20.45
2022-08-11T04:10:53.096Z,20.47
2022-08-11T04:16:16.343Z,20.48
2022-08-11T04:21:25.504Z,20.45
2022-08-11T04:26:45.333Z,20.40
2022-08-11T04:31:51.649Z,20.33
2022-08-11T04:37:23.573Z,20.24
2022-08-11T04:43:02.195Z,20.20
2022-08-11T04:48:28.329Z,20.20
2022-08-11T04:53:59.808Z,20.21
2022-08-11T04:59:32.491Z,20.26
2022-08-11T05:05:11.183Z,20.32
2022-08-11T05:10:22.180Z,20.38
2022-08-11T05:15:51.571Z,20.47
2022-08-11T05:21:13.648Z,20.58
2022-08-11T05:26:46.422Z,20.70
2022-08-11T05:32:13.802Z,20.83
2022-08-11T05:37:28.055Z,20.92
2022-08-11T05:42:49.983Z,21.03
2022-08-11T05:48:10.342Z,21.15
2022-08-11T05:53:31.738Z,21.29
2022-08-11T05:58:49.333Z,21.44
2022-08-11T06:04:11.052Z,21.61
2022-08-11T06:09:14.349Z,21.78
2022-08-11T06:14:15.891Z,21.98
2022-08-11T06:19:21.110Z,22.17
2022-08-11T06:24:22.847Z,22.35
2022-08-11T06:29:37.825Z,22.50
2022-08-11T06:34:59.300Z,22.73
2022-08-11T06:40:07.248Z,22.90
2022-08-11T06:45:27.364Z,23.05
2022-08-11T06:50:47.992Z,23.23
2022-08-11T06:56:08.080Z,23.33
2022-08-11T07:01:13.942Z,23.44
2022-08-11T07:06:29.083Z,23.60
2022-08-11T07:12:27.767Z,23.73
2022-08-11T07:17:31.658Z,23.83
2022-08-11T07:23:10.230Z,23.96
2022-08-11T07:28:36.962Z,24.12
2022-08-11T07:34:08.374Z,24.28
2022-08-11T07:39:08.147Z,24.43
2022-08-11T07:44:11.462Z,24.56
2022-08-11T07:49:31.451Z,24.68
2022-08-11T07:54:33.567Z,24.76
2022-08-11T08:00:00.561Z,24.87
2022-08-11T08:05:33.363Z,25.04
2022-08-11T08:10:53.619Z,25.22
2022-08-11T08:16:13.968Z,25.34
2022-08-11T08:21:16.759Z,25.48
2022-08-11T08:26:36.953Z,25.58
2022-08-11T08:31:39.011Z,25.76
2022-08-11T08:36:42.035Z,25.97
2022-08-11T08:41:43.719Z,26.13
2022-08-11T08:46:47.751Z,26.18
2022-08-11T08:52:01.109Z,26.30
2022-08-11T08:57:15.644Z,26.38
2022-08-11T09:02:34.328Z,26.46
2022-08-11T09:07:39.825Z,26.38
2022-08-11T09:12:44.696Z,26.52
2022-08-11T09:17:47.348Z,26.60
2022-08-11T09:24:07.133Z,26.54
2022-08-11T09:28:30.603Z,26.52
2022-08-11T09:33:33.096Z,26.53
2022-08-11T09:38:53.053Z,26.43
2022-08-11T09:44:13.142Z,26.43
2022-08-11T09:49:14.545Z,26.41
2022-08-11T09:54:18.414Z,26.47
2022-08-11T09:59:20.899Z,26.59
2022-08-11T10:04:31.116Z,26.83
2022-08-11T10:09:40.657Z,26.89
2022-08-11T10:15:05.046Z,26.86
2022-08-11T10:20:07.972Z,26.86
2022-08-11T10:25:29.324Z,26.87
2022-08-11T10:30:49.644Z,27.05
2022-08-11T10:35:51.898Z,27.11
2022-08-11T10:41:14.403Z,27.29
2022-08-11T10:46:34.542Z,27.63
2022-08-11T10:51:58.656Z,27.94
2022-08-11T10:57:19.421Z,28.18
2022-08-11T11:02:21.334Z,28.30
2022-08-11T11:07:24.851Z,28.39
2022-08-11T11:12:45.130Z,28.54
2022-08-11T11:17:57.145Z,28.74
2022-08-11T11:23:01.710Z,28.93
2022-08-11T11:28:08.989Z,29.00
2022-08-11T11:33:16.703Z,29.10
2022-08-11T11:38:18.863Z,29.27
2022-08-11T11:43:20.649Z,29.43
2022-08-11T11:48:22.210Z,29.48
2022-08-11T11:53:23.658Z,29.44
2022-08-11T11:58:45.266Z,29.55
2022-08-11T12:03:49.322Z,29.41
2022-08-11T12:08:52.912Z,29.35
2022-08-11T12:13:55.454Z,29.30
2022-08-11T12:18:58.734Z,29.42
2022-08-11T12:24:19.876Z,29.46
2022-08-11T12:29:29.564Z,29.46
2022-08-11T12:34:30.963Z,29.61
2022-08-11T12:40:10.841Z,29.75
2022-08-11T12:45:28.817Z,29.76
2022-08-11T12:50:48.822Z,29.92
2022-08-11T12:56:09.680Z,30.05
2022-08-11T13:01:32.089Z,30.01
2022-08-11T13:12:21.585Z,30.11
